sensor_id;sensor_type;location;lat;lon;timestamp;temperature;humidity
10885;DHT22;5495;53.252;10.390;2023-03-04T00:01:05;5.80;99.90
10885;DHT22;5495;53.252;10.390;2023-03-04T00:03:33;5.90;99.90
10885;DHT22;5495;53.252;10.390;2023-03-04T00:06:02;5.90;99.90
10885;DHT22;5495;53.252;10.390;2023-03-04T00:08:29;6.00;99.90
10885;DHT22;5495;53.252;10.390;2023-03-04T00:10:57;5.90;99.90
10885;DHT22;5495;53.252;10.390;2023-03-04T00:13:25;5.80;99.90
10885;DHT22;5495;53.252;10.390;2023-03-04T00:15:52;5.80;99.90
10885;DHT22;5495;53.252;10.390;2023-03-04T00:18:21;5.80;99.90
10885;DHT22;5495;53.252;10.390;2023-03-04T00:20:48;5.80;99.90
10885;DHT22;5495;53.252;10.390;2023-03-04T00:23:16;5.80;99.90
10885;DHT22;5495;53.252;10.390;2023-03-04T00:25:43;5.80;99.90
10885;DHT22;5495;53.252;10.390;2023-03-04T00:28:11;5.80;99.90
10885;DHT22;5495;53.252;10.390;2023-03-04T00:30:38;5.80;99.90
10885;DHT22;5495;53.252;10.390;2023-03-04T00:33:05;5.70;99.90
10885;DHT22;5495;53.252;10.390;2023-03-04T00:35:34;5.70;99.90
10885;DHT22;5495;53.252;10.390;2023-03-04T00:38:02;5.80;99.90
10885;DHT22;5495;53.252;10.390;2023-03-04T00:40:29;5.80;99.90
10885;DHT22;5495;53.252;10.390;2023-03-04T00:42:56;5.80;99.90
10885;DHT22;5495;53.252;10.390;2023-03-04T00:45:24;5.80;99.90
10885;DHT22;5495;53.252;10.390;2023-03-04T00:47:51;5.90;99.90
10885;DHT22;5495;53.252;10.390;2023-03-04T00:50:18;5.90;99.90
10885;DHT22;5495;53.252;10.390;2023-03-04T00:52:47;5.90;99.90
10885;DHT22;5495;53.252;10.390;2023-03-04T00:55:15;5.90;99.90
10885;DHT22;5495;53.252;10.390;2023-03-04T00:57:42;6.00;99.90
10885;DHT22;5495;53.252;10.390;2023-03-04T01:00:14;5.90;99.90
10885;DHT22;5495;53.252;10.390;2023-03-04T01:02:41;5.80;99.90
10885;DHT22;5495;53.252;10.390;2023-03-04T01:05:09;5.80;99.90
10885;DHT22;5495;53.252;10.390;2023-03-04T01:07:37;5.80;99.90
10885;DHT22;5495;53.252;10.390;2023-03-04T01:10:09;5.80;99.90
10885;DHT22;5495;53.252;10.390;2023-03-04T01:12:36;5.80;99.90
10885;DHT22;5495;53.252;10.390;2023-03-04T01:15:08;5.80;99.90
10885;DHT22;5495;53.252;10.390;2023-03-04T01:17:35;5.80;99.90
10885;DHT22;5495;53.252;10.390;2023-03-04T01:20:04;5.80;99.90
10885;DHT22;5495;53.252;10.390;2023-03-04T01:22:32;5.80;99.90
10885;DHT22;5495;53.252;10.390;2023-03-04T01:25:00;5.70;99.90
10885;DHT22;5495;53.252;10.390;2023-03-04T01:27:28;5.80;99.90
10885;DHT22;5495;53.252;10.390;2023-03-04T01:29:56;5.80;99.90
10885;DHT22;5495;53.252;10.390;2023-03-04T01:32:23;5.80;99.90
10885;DHT22;5495;53.252;10.390;2023-03-04T01:34:50;5.80;99.90
10885;DHT22;5495;53.252;10.390;2023-03-04T01:37:18;5.80;99.90
10885;DHT22;5495;53.252;10.390;2023-03-04T01:39:45;5.90;99.90
10885;DHT22;5495;53.252;10.390;2023-03-04T01:42:17;5.90;99.90
10885;DHT22;5495;53.252;10.390;2023-03-04T01:44:48;5.90;99.90
10885;DHT22;5495;53.252;10.390;2023-03-04T01:47:17;5.90;99.90
10885;DHT22;5495;53.252;10.390;2023-03-04T01:49:46;5.80;99.90
10885;DHT22;5495;53.252;10.390;2023-03-04T01:52:16;5.80;99.90
10885;DHT22;5495;53.252;10.390;2023-03-04T01:54:43;5.80;99.90
10885;DHT22;5495;53.252;10.390;2023-03-04T01:57:16;5.80;99.90
10885;DHT22;5495;53.252;10.390;2023-03-04T01:59:44;5.80;99.90
10885;DHT22;5495;53.252;10.390;2023-03-04T02:02:13;5.90;99.90
10885;DHT22;5495;53.252;10.390;2023-03-04T02:04:41;6.00;99.90
10885;DHT22;5495;53.252;10.390;2023-03-04T02:07:09;6.00;99.90
10885;DHT22;5495;53.252;10.390;2023-03-04T02:09:38;5.90;99.90
10885;DHT22;5495;53.252;10.390;2023-03-04T02:12:05;6.00;99.90
10885;DHT22;5495;53.252;10.390;2023-03-04T02:14:33;6.00;99.90
10885;DHT22;5495;53.252;10.390;2023-03-04T02:17:00;6.00;99.90
10885;DHT22;5495;53.252;10.390;2023-03-04T02:19:39;6.00;99.90
10885;DHT22;5495;53.252;10.390;2023-03-04T02:22:08;6.10;99.90
10885;DHT22;5495;53.252;10.390;2023-03-04T02:24:39;6.00;99.90
10885;DHT22;5495;53.252;10.390;2023-03-04T02:27:09;5.90;99.90
10885;DHT22;5495;53.252;10.390;2023-03-04T02:29:36;5.90;99.90
10885;DHT22;5495;53.252;10.390;2023-03-04T02:32:04;5.90;99.90
10885;DHT22;5495;53.252;10.390;2023-03-04T02:34:33;5.90;99.90
10885;DHT22;5495;53.252;10.390;2023-03-04T02:37:01;5.90;99.90
10885;DHT22;5495;53.252;10.390;2023-03-04T02:39:31;5.90;99.90
10885;DHT22;5495;53.252;10.390;2023-03-04T02:42:00;5.90;99.90
10885;DHT22;5495;53.252;10.390;2023-03-04T02:44:31;5.90;99.90
10885;DHT22;5495;53.252;10.390;2023-03-04T02:47:00;5.90;99.90
10885;DHT22;5495;53.252;10.390;2023-03-04T02:49:30;5.90;99.90
10885;DHT22;5495;53.252;10.390;2023-03-04T02:52:02;5.90;99.90
10885;DHT22;5495;53.252;10.390;2023-03-04T02:54:29;5.90;99.90
10885;DHT22;5495;53.252;10.390;2023-03-04T02:56:58;5.90;99.90
10885;DHT22;5495;53.252;10.390;2023-03-04T02:59:26;5.90;99.90
10885;DHT22;5495;53.252;10.390;2023-03-04T03:01:55;5.90;99.90
10885;DHT22;5495;53.252;10.390;2023-03-04T03:04:23;6.00;99.90
10885;DHT22;5495;53.252;10.390;2023-03-04T03:06:52;6.00;99.90
10885;DHT22;5495;53.252;10.390;2023-03-04T03:09:19;6.00;99.90
10885;DHT22;5495;53.252;10.390;2023-03-04T03:11:46;6.00;99.90
10885;DHT22;5495;53.252;10.390;2023-03-04T03:14:14;6.00;99.90
10885;DHT22;5495;53.252;10.390;2023-03-04T03:16:42;5.90;99.90
10885;DHT22;5495;53.252;10.390;2023-03-04T03:19:10;6.00;99.90
10885;DHT22;5495;53.252;10.390;2023-03-04T03:21:38;6.00;99.90
10885;DHT22;5495;53.252;10.390;2023-03-04T03:24:05;6.00;99.90
10885;DHT22;5495;53.252;10.390;2023-03-04T03:26:33;6.00;99.90
10885;DHT22;5495;53.252;10.390;2023-03-04T03:29:00;6.00;99.90
10885;DHT22;5495;53.252;10.390;2023-03-04T03:31:28;6.10;99.90
10885;DHT22;5495;53.252;10.390;2023-03-04T03:33:55;6.10;99.90
10885;DHT22;5495;53.252;10.390;2023-03-04T03:36:24;6.00;99.90
10885;DHT22;5495;53.252;10.390;2023-03-04T03:38:51;6.00;99.90
10885;DHT22;5495;53.252;10.390;2023-03-04T03:41:19;6.00;99.90
10885;DHT22;5495;53.252;10.390;2023-03-04T03:43:46;6.10;99.90
10885;DHT22;5495;53.252;10.390;2023-03-04T03:46:13;6.10;99.90
10885;DHT22;5495;53.252;10.390;2023-03-04T03:48:41;6.10;99.90
10885;DHT22;5495;53.252;10.390;2023-03-04T03:51:08;6.10;99.90
10885;DHT22;5495;53.252;10.390;2023-03-04T03:53:37;6.00;99.90
10885;DHT22;5495;53.252;10.390;2023-03-04T03:56:05;6.00;99.90
10885;DHT22;5495;53.252;10.390;2023-03-04T03:58:32;6.10;99.90
10885;DHT22;5495;53.252;10.390;2023-03-04T04:01:00;6.10;99.90
10885;DHT22;5495;53.252;10.390;2023-03-04T04:03:27;6.10;99.90
10885;DHT22;5495;53.252;10.390;2023-03-04T04:05:54;6.10;99.90
10885;DHT22;5495;53.252;10.390;2023-03-04T04:08:21;6.10;99.90
10885;DHT22;5495;53.252;10.390;2023-03-04T04:10:50;6.20;99.90
10885;DHT22;5495;53.252;10.390;2023-03-04T04:13:18;6.20;99.90
10885;DHT22;5495;53.252;10.390;2023-03-04T04:15:45;6.20;99.90
10885;DHT22;5495;53.252;10.390;2023-03-04T04:18:12;6.10;99.90
10885;DHT22;5495;53.252;10.390;2023-03-04T04:20:40;6.00;99.90
10885;DHT22;5495;53.252;10.390;2023-03-04T04:23:07;6.00;99.90
10885;DHT22;5495;53.252;10.390;2023-03-04T04:25:35;6.00;99.90
10885;DHT22;5495;53.252;10.390;2023-03-04T04:28:03;6.00;99.90
10885;DHT22;5495;53.252;10.390;2023-03-04T04:30:31;6.00;99.90
10885;DHT22;5495;53.252;10.390;2023-03-04T04:32:58;6.10;99.90
10885;DHT22;5495;53.252;10.390;2023-03-04T04:35:26;6.00;99.90
10885;DHT22;5495;53.252;10.390;2023-03-04T04:37:54;5.90;99.90
10885;DHT22;5495;53.252;10.390;2023-03-04T04:40:21;5.90;99.90
10885;DHT22;5495;53.252;10.390;2023-03-04T04:42:48;5.90;99.90
10885;DHT22;5495;53.252;10.390;2023-03-04T04:45:17;5.90;99.90
10885;DHT22;5495;53.252;10.390;2023-03-04T04:47:45;5.90;99.90
10885;DHT22;5495;53.252;10.390;2023-03-04T04:50:12;5.90;99.90
10885;DHT22;5495;53.252;10.390;2023-03-04T04:52:39;5.80;99.90
10885;DHT22;5495;53.252;10.390;2023-03-04T04:55:08;5.90;99.90
10885;DHT22;5495;53.252;10.390;2023-03-04T04:57:36;5.90;99.90
10885;DHT22;5495;53.252;10.390;2023-03-04T05:00:04;6.00;99.90
10885;DHT22;5495;53.252;10.390;2023-03-04T05:02:33;6.00;99.90
10885;DHT22;5495;53.252;10.390;2023-03-04T05:05:01;6.00;99.90
10885;DHT22;5495;53.252;10.390;2023-03-04T05:07:28;6.00;99.90
10885;DHT22;5495;53.252;10.390;2023-03-04T05:09:56;5.90;99.90
10885;DHT22;5495;53.252;10.390;2023-03-04T05:12:23;5.90;99.90
10885;DHT22;5495;53.252;10.390;2023-03-04T05:14:51;5.90;99.90
10885;DHT22;5495;53.252;10.390;2023-03-04T05:17:18;5.90;99.90
10885;DHT22;5495;53.252;10.390;2023-03-04T05:19:47;5.90;99.90
10885;DHT22;5495;53.252;10.390;2023-03-04T05:22:14;5.90;99.90
10885;DHT22;5495;53.252;10.390;2023-03-04T05:24:41;5.90;99.90
10885;DHT22;5495;53.252;10.390;2023-03-04T05:27:09;5.90;99.90
10885;DHT22;5495;53.252;10.390;2023-03-04T05:29:36;5.90;99.90
10885;DHT22;5495;53.252;10.390;2023-03-04T05:32:04;6.00;99.90
10885;DHT22;5495;53.252;10.390;2023-03-04T05:34:31;6.10;99.90
10885;DHT22;5495;53.252;10.390;2023-03-04T05:37:00;6.00;99.90
10885;DHT22;5495;53.252;10.390;2023-03-04T05:39:28;6.00;99.90
10885;DHT22;5495;53.252;10.390;2023-03-04T05:41:55;5.90;99.90
10885;DHT22;5495;53.252;10.390;2023-03-04T05:44:22;6.00;99.90
10885;DHT22;5495;53.252;10.390;2023-03-04T05:46:50;6.00;99.90
10885;DHT22;5495;53.252;10.390;2023-03-04T05:49:17;6.00;99.90
10885;DHT22;5495;53.252;10.390;2023-03-04T05:51:44;6.00;99.90
10885;DHT22;5495;53.252;10.390;2023-03-04T05:54:16;6.00;99.90
10885;DHT22;5495;53.252;10.390;2023-03-04T05:56:44;6.00;99.90
10885;DHT22;5495;53.252;10.390;2023-03-04T05:59:14;5.90;99.90
10885;DHT22;5495;53.252;10.390;2023-03-04T06:01:45;5.80;99.90
10885;DHT22;5495;53.252;10.390;2023-03-04T06:04:12;5.90;99.90
10885;DHT22;5495;53.252;10.390;2023-03-04T06:06:39;5.90;99.90
10885;DHT22;5495;53.252;10.390;2023-03-04T06:09:07;5.90;99.90
10885;DHT22;5495;53.252;10.390;2023-03-04T06:11:36;5.80;99.90
10885;DHT22;5495;53.252;10.390;2023-03-04T06:14:03;5.70;99.90
10885;DHT22;5495;53.252;10.390;2023-03-04T06:16:31;5.80;99.90
10885;DHT22;5495;53.252;10.390;2023-03-04T06:19:01;5.70;99.90
10885;DHT22;5495;53.252;10.390;2023-03-04T06:21:28;5.70;99.90
10885;DHT22;5495;53.252;10.390;2023-03-04T06:23:57;5.70;99.90
10885;DHT22;5495;53.252;10.390;2023-03-04T06:26:24;5.70;99.90
10885;DHT22;5495;53.252;10.390;2023-03-04T06:28:53;5.70;99.90
10885;DHT22;5495;53.252;10.390;2023-03-04T06:31:21;5.80;99.90
10885;DHT22;5495;53.252;10.390;2023-03-04T06:33:49;5.70;99.90
10885;DHT22;5495;53.252;10.390;2023-03-04T06:36:16;5.70;99.90
10885;DHT22;5495;53.252;10.390;2023-03-04T06:38:44;5.70;99.90
10885;DHT22;5495;53.252;10.390;2023-03-04T06:41:18;5.70;99.90
10885;DHT22;5495;53.252;10.390;2023-03-04T06:43:45;5.80;99.90
10885;DHT22;5495;53.252;10.390;2023-03-04T06:46:14;5.80;99.90
10885;DHT22;5495;53.252;10.390;2023-03-04T06:48:42;5.80;99.90
10885;DHT22;5495;53.252;10.390;2023-03-04T06:51:10;5.80;99.90
10885;DHT22;5495;53.252;10.390;2023-03-04T06:53:38;5.70;99.90
10885;DHT22;5495;53.252;10.390;2023-03-04T06:56:08;5.60;99.90
10885;DHT22;5495;53.252;10.390;2023-03-04T06:58:36;5.60;99.90
10885;DHT22;5495;53.252;10.390;2023-03-04T07:01:16;5.60;99.90
10885;DHT22;5495;53.252;10.390;2023-03-04T07:03:44;5.60;99.90
10885;DHT22;5495;53.252;10.390;2023-03-04T07:06:13;5.60;99.90
10885;DHT22;5495;53.252;10.390;2023-03-04T07:08:41;5.70;99.90
10885;DHT22;5495;53.252;10.390;2023-03-04T07:11:09;5.80;99.90
10885;DHT22;5495;53.252;10.390;2023-03-04T07:13:37;5.80;99.90
10885;DHT22;5495;53.252;10.390;2023-03-04T07:16:05;5.80;99.90
10885;DHT22;5495;53.252;10.390;2023-03-04T07:18:38;5.90;99.90
10885;DHT22;5495;53.252;10.390;2023-03-04T07:21:07;5.90;99.90
10885;DHT22;5495;53.252;10.390;2023-03-04T07:23:35;5.90;99.90
10885;DHT22;5495;53.252;10.390;2023-03-04T07:26:02;5.90;99.90
10885;DHT22;5495;53.252;10.390;2023-03-04T07:28:31;5.90;99.90
10885;DHT22;5495;53.252;10.390;2023-03-04T07:31:08;5.90;99.90
10885;DHT22;5495;53.252;10.390;2023-03-04T07:33:36;5.90;99.90
10885;DHT22;5495;53.252;10.390;2023-03-04T07:36:11;5.90;99.90
10885;DHT22;5495;53.252;10.390;2023-03-04T07:38:43;5.90;99.90
10885;DHT22;5495;53.252;10.390;2023-03-04T07:41:11;5.90;99.90
10885;DHT22;5495;53.252;10.390;2023-03-04T07:43:39;5.90;99.90
10885;DHT22;5495;53.252;10.390;2023-03-04T07:46:06;5.90;99.90
10885;DHT22;5495;53.252;10.390;2023-03-04T07:48:34;5.90;99.90
10885;DHT22;5495;53.252;10.390;2023-03-04T07:51:05;5.90;99.90
10885;DHT22;5495;53.252;10.390;2023-03-04T07:53:33;5.90;99.90
10885;DHT22;5495;53.252;10.390;2023-03-04T07:56:01;5.90;99.90
10885;DHT22;5495;53.252;10.390;2023-03-04T07:58:29;6.00;99.90
10885;DHT22;5495;53.252;10.390;2023-03-04T08:00:56;6.00;99.90
10885;DHT22;5495;53.252;10.390;2023-03-04T08:03:36;6.00;99.90
10885;DHT22;5495;53.252;10.390;2023-03-04T08:06:08;6.00;99.90
10885;DHT22;5495;53.252;10.390;2023-03-04T08:08:36;6.00;99.90
10885;DHT22;5495;53.252;10.390;2023-03-04T08:11:04;6.00;99.90
10885;DHT22;5495;53.252;10.390;2023-03-04T08:13:33;5.90;99.90
10885;DHT22;5495;53.252;10.390;2023-03-04T08:16:00;6.00;99.90
10885;DHT22;5495;53.252;10.390;2023-03-04T08:18:28;6.00;99.90
10885;DHT22;5495;53.252;10.390;2023-03-04T08:20:56;6.00;99.90
10885;DHT22;5495;53.252;10.390;2023-03-04T08:23:30;6.00;99.90
10885;DHT22;5495;53.252;10.390;2023-03-04T08:25:59;6.00;99.90
10885;DHT22;5495;53.252;10.390;2023-03-04T08:28:33;6.00;99.90
10885;DHT22;5495;53.252;10.390;2023-03-04T08:31:00;6.00;99.90
10885;DHT22;5495;53.252;10.390;2023-03-04T08:33:27;6.00;99.90
10885;DHT22;5495;53.252;10.390;2023-03-04T08:35:55;6.00;99.90
10885;DHT22;5495;53.252;10.390;2023-03-04T08:38:22;5.90;99.90
10885;DHT22;5495;53.252;10.390;2023-03-04T08:40:55;5.90;99.90
10885;DHT22;5495;53.252;10.390;2023-03-04T08:43:23;5.90;99.90
10885;DHT22;5495;53.252;10.390;2023-03-04T08:45:52;6.00;99.90
10885;DHT22;5495;53.252;10.390;2023-03-04T08:48:23;6.00;99.90
10885;DHT22;5495;53.252;10.390;2023-03-04T08:50:50;6.00;99.90
10885;DHT22;5495;53.252;10.390;2023-03-04T08:53:24;6.00;99.90
10885;DHT22;5495;53.252;10.390;2023-03-04T08:55:51;6.00;99.90
10885;DHT22;5495;53.252;10.390;2023-03-04T08:58:32;6.00;99.90
10885;DHT22;5495;53.252;10.390;2023-03-04T09:01:06;6.00;99.90
10885;DHT22;5495;53.252;10.390;2023-03-04T09:03:41;6.00;99.90
10885;DHT22;5495;53.252;10.390;2023-03-04T09:06:16;6.00;99.90
10885;DHT22;5495;53.252;10.390;2023-03-04T09:08:52;6.00;99.90
10885;DHT22;5495;53.252;10.390;2023-03-04T09:11:20;6.00;99.90
10885;DHT22;5495;53.252;10.390;2023-03-04T09:13:50;6.00;99.90
10885;DHT22;5495;53.252;10.390;2023-03-04T09:16:18;5.90;99.90
10885;DHT22;5495;53.252;10.390;2023-03-04T09:18:48;5.90;99.90
10885;DHT22;5495;53.252;10.390;2023-03-04T09:21:16;6.00;99.90
10885;DHT22;5495;53.252;10.390;2023-03-04T09:23:50;6.00;99.90
10885;DHT22;5495;53.252;10.390;2023-03-04T09:26:20;6.00;99.90
10885;DHT22;5495;53.252;10.390;2023-03-04T09:28:53;6.00;99.90
10885;DHT22;5495;53.252;10.390;2023-03-04T09:31:22;6.00;99.90
10885;DHT22;5495;53.252;10.390;2023-03-04T09:33:51;6.00;99.90
10885;DHT22;5495;53.252;10.390;2023-03-04T09:36:19;6.10;99.90
10885;DHT22;5495;53.252;10.390;2023-03-04T09:38:50;6.10;99.90
10885;DHT22;5495;53.252;10.390;2023-03-04T09:41:24;6.10;99.90
10885;DHT22;5495;53.252;10.390;2023-03-04T09:43:55;5.90;99.90
10885;DHT22;5495;53.252;10.390;2023-03-04T09:46:28;6.10;99.90
10885;DHT22;5495;53.252;10.390;2023-03-04T09:48:58;6.00;99.90
10885;DHT22;5495;53.252;10.390;2023-03-04T09:51:42;6.00;99.90
10885;DHT22;5495;53.252;10.390;2023-03-04T09:54:17;6.00;99.90
10885;DHT22;5495;53.252;10.390;2023-03-04T09:56:49;6.00;99.90
10885;DHT22;5495;53.252;10.390;2023-03-04T09:59:24;6.10;99.90
10885;DHT22;5495;53.252;10.390;2023-03-04T10:02:00;6.10;99.90
10885;DHT22;5495;53.252;10.390;2023-03-04T10:04:34;6.10;99.90
10885;DHT22;5495;53.252;10.390;2023-03-04T10:07:04;6.10;99.90
10885;DHT22;5495;53.252;10.390;2023-03-04T10:09:43;6.10;99.90
10885;DHT22;5495;53.252;10.390;2023-03-04T10:12:14;6.20;99.90
10885;DHT22;5495;53.252;10.390;2023-03-04T10:14:47;6.20;99.90
10885;DHT22;5495;53.252;10.390;2023-03-04T10:17:19;6.20;99.90
10885;DHT22;5495;53.252;10.390;2023-03-04T10:19:55;6.20;99.90
10885;DHT22;5495;53.252;10.390;2023-03-04T10:22:31;6.20;99.90
10885;DHT22;5495;53.252;10.390;2023-03-04T10:25:06;6.20;99.90
10885;DHT22;5495;53.252;10.390;2023-03-04T10:27:47;6.20;99.90
10885;DHT22;5495;53.252;10.390;2023-03-04T10:30:34;6.30;99.90
10885;DHT22;5495;53.252;10.390;2023-03-04T10:33:11;6.30;99.90
10885;DHT22;5495;53.252;10.390;2023-03-04T10:35:39;6.30;99.90
10885;DHT22;5495;53.252;10.390;2023-03-04T10:38:12;6.30;99.90
10885;DHT22;5495;53.252;10.390;2023-03-04T10:40:40;6.30;99.90
10885;DHT22;5495;53.252;10.390;2023-03-04T10:43:14;6.30;99.90
10885;DHT22;5495;53.252;10.390;2023-03-04T10:45:43;6.30;99.90
10885;DHT22;5495;53.252;10.390;2023-03-04T10:48:23;6.30;99.90
10885;DHT22;5495;53.252;10.390;2023-03-04T10:50:51;6.30;99.90
10885;DHT22;5495;53.252;10.390;2023-03-04T10:53:32;6.30;99.90
10885;DHT22;5495;53.252;10.390;2023-03-04T10:56:31;6.30;99.90
10885;DHT22;5495;53.252;10.390;2023-03-04T10:59:31;6.40;99.90
10885;DHT22;5495;53.252;10.390;2023-03-04T11:02:19;6.40;99.90
10885;DHT22;5495;53.252;10.390;2023-03-04T11:05:04;6.40;99.90
10885;DHT22;5495;53.252;10.390;2023-03-04T11:07:39;6.40;99.90
10885;DHT22;5495;53.252;10.390;2023-03-04T11:10:18;6.40;99.90
10885;DHT22;5495;53.252;10.390;2023-03-04T11:12:52;6.40;99.90
10885;DHT22;5495;53.252;10.390;2023-03-04T11:15:23;6.40;99.90
10885;DHT22;5495;53.252;10.390;2023-03-04T11:17:57;6.40;99.90
10885;DHT22;5495;53.252;10.390;2023-03-04T11:20:30;6.40;99.90
10885;DHT22;5495;53.252;10.390;2023-03-04T11:23:03;6.50;99.90
10885;DHT22;5495;53.252;10.390;2023-03-04T11:25:35;6.50;99.90
10885;DHT22;5495;53.252;10.390;2023-03-04T11:28:11;6.50;99.90
10885;DHT22;5495;53.252;10.390;2023-03-04T11:30:49;6.50;99.90
10885;DHT22;5495;53.252;10.390;2023-03-04T11:33:26;6.50;99.90
10885;DHT22;5495;53.252;10.390;2023-03-04T11:36:03;6.50;99.90
10885;DHT22;5495;53.252;10.390;2023-03-04T11:38:36;6.50;99.90
10885;DHT22;5495;53.252;10.390;2023-03-04T11:41:12;6.60;99.90
10885;DHT22;5495;53.252;10.390;2023-03-04T11:43:42;6.70;99.90
10885;DHT22;5495;53.252;10.390;2023-03-04T11:46:50;6.70;99.90
10885;DHT22;5495;53.252;10.390;2023-03-04T11:49:49;6.80;99.90
10885;DHT22;5495;53.252;10.390;2023-03-04T11:52:32;6.70;99.90
10885;DHT22;5495;53.252;10.390;2023-03-04T11:55:27;6.70;99.90
10885;DHT22;5495;53.252;10.390;2023-03-04T11:58:05;6.70;99.90
10885;DHT22;5495;53.252;10.390;2023-03-04T12:00:38;6.70;99.90
10885;DHT22;5495;53.252;10.390;2023-03-04T12:03:29;6.80;99.90
10885;DHT22;5495;53.252;10.390;2023-03-04T12:06:11;6.90;99.90
10885;DHT22;5495;53.252;10.390;2023-03-04T12:08:59;7.00;99.90
10885;DHT22;5495;53.252;10.390;2023-03-04T12:11:36;7.00;99.90
10885;DHT22;5495;53.252;10.390;2023-03-04T12:14:29;7.10;99.90
10885;DHT22;5495;53.252;10.390;2023-03-04T12:17:16;7.00;99.90
10885;DHT22;5495;53.252;10.390;2023-03-04T12:19:58;7.00;99.90
10885;DHT22;5495;53.252;10.390;2023-03-04T12:22:42;7.10;99.90
10885;DHT22;5495;53.252;10.390;2023-03-04T12:25:40;7.10;99.90
10885;DHT22;5495;53.252;10.390;2023-03-04T12:28:19;7.10;99.90
10885;DHT22;5495;53.252;10.390;2023-03-04T12:30:58;7.10;99.90
10885;DHT22;5495;53.252;10.390;2023-03-04T12:33:35;7.10;99.90
10885;DHT22;5495;53.252;10.390;2023-03-04T12:36:12;7.20;99.90
10885;DHT22;5495;53.252;10.390;2023-03-04T12:39:07;7.20;99.90
10885;DHT22;5495;53.252;10.390;2023-03-04T12:41:48;7.20;99.90
10885;DHT22;5495;53.252;10.390;2023-03-04T12:44:20;7.20;99.90
10885;DHT22;5495;53.252;10.390;2023-03-04T12:47:05;7.20;99.90
10885;DHT22;5495;53.252;10.390;2023-03-04T12:49:46;7.20;99.90
10885;DHT22;5495;53.252;10.390;2023-03-04T12:52:20;7.10;99.90
10885;DHT22;5495;53.252;10.390;2023-03-04T12:54:55;7.10;99.90
10885;DHT22;5495;53.252;10.390;2023-03-04T12:57:23;7.00;99.90
10885;DHT22;5495;53.252;10.390;2023-03-04T12:59:55;7.00;99.90
10885;DHT22;5495;53.252;10.390;2023-03-04T13:05:23;7.10;99.90
10885;DHT22;5495;53.252;10.390;2023-03-04T13:07:58;7.50;99.90
10885;DHT22;5495;53.252;10.390;2023-03-04T13:10:29;8.40;99.90
10885;DHT22;5495;53.252;10.390;2023-03-04T13:12:58;8.50;99.90
10885;DHT22;5495;53.252;10.390;2023-03-04T13:15:33;8.40;99.90
10885;DHT22;5495;53.252;10.390;2023-03-04T13:18:02;8.20;99.90
10885;DHT22;5495;53.252;10.390;2023-03-04T13:20:37;8.10;99.90
10885;DHT22;5495;53.252;10.390;2023-03-04T13:23:27;8.00;99.90
10885;DHT22;5495;53.252;10.390;2023-03-04T13:29:33;7.70;99.90
10885;DHT22;5495;53.252;10.390;2023-03-04T13:32:08;7.10;99.90
10885;DHT22;5495;53.252;10.390;2023-03-04T13:34:47;7.50;99.90
10885;DHT22;5495;53.252;10.390;2023-03-04T13:37:30;7.50;99.90
10885;DHT22;5495;53.252;10.390;2023-03-04T13:40:31;7.60;99.90
10885;DHT22;5495;53.252;10.390;2023-03-04T13:43:24;7.40;99.90
10885;DHT22;5495;53.252;10.390;2023-03-04T13:45:55;7.70;99.90
10885;DHT22;5495;53.252;10.390;2023-03-04T13:48:31;7.60;99.90
10885;DHT22;5495;53.252;10.390;2023-03-04T13:51:02;7.60;99.90
10885;DHT22;5495;53.252;10.390;2023-03-04T13:53:43;7.50;99.90
10885;DHT22;5495;53.252;10.390;2023-03-04T13:56:30;7.40;99.90
10885;DHT22;5495;53.252;10.390;2023-03-04T13:59:26;7.20;99.90
10885;DHT22;5495;53.252;10.390;2023-03-04T14:02:02;7.20;99.90
10885;DHT22;5495;53.252;10.390;2023-03-04T14:04:35;7.20;99.90
10885;DHT22;5495;53.252;10.390;2023-03-04T14:07:17;7.20;99.90
10885;DHT22;5495;53.252;10.390;2023-03-04T14:09:54;7.10;99.90
10885;DHT22;5495;53.252;10.390;2023-03-04T14:12:22;7.30;99.90
10885;DHT22;5495;53.252;10.390;2023-03-04T14:14:54;7.30;99.90
10885;DHT22;5495;53.252;10.390;2023-03-04T14:17:27;10.40;99.90
10885;DHT22;5495;53.252;10.390;2023-03-04T14:19:56;7.60;99.90
10885;DHT22;5495;53.252;10.390;2023-03-04T14:22:25;7.60;99.90
10885;DHT22;5495;53.252;10.390;2023-03-04T14:25:00;7.50;99.90
10885;DHT22;5495;53.252;10.390;2023-03-04T14:27:29;7.40;99.90
10885;DHT22;5495;53.252;10.390;2023-03-04T14:30:01;7.30;99.90
10885;DHT22;5495;53.252;10.390;2023-03-04T14:32:33;7.20;99.90
10885;DHT22;5495;53.252;10.390;2023-03-04T14:35:04;7.20;99.90
10885;DHT22;5495;53.252;10.390;2023-03-04T14:37:37;7.20;99.90
10885;DHT22;5495;53.252;10.390;2023-03-04T14:40:26;6.90;99.90
10885;DHT22;5495;53.252;10.390;2023-03-04T14:42:56;7.10;99.90
10885;DHT22;5495;53.252;10.390;2023-03-04T14:45:27;6.90;99.90
10885;DHT22;5495;53.252;10.390;2023-03-04T14:47:58;7.00;99.90
10885;DHT22;5495;53.252;10.390;2023-03-04T14:50:27;7.00;99.90
10885;DHT22;5495;53.252;10.390;2023-03-04T14:53:13;6.90;99.90
10885;DHT22;5495;53.252;10.390;2023-03-04T14:55:54;6.90;99.90
10885;DHT22;5495;53.252;10.390;2023-03-04T14:58:24;7.00;99.90
10885;DHT22;5495;53.252;10.390;2023-03-04T15:01:12;7.00;99.90
10885;DHT22;5495;53.252;10.390;2023-03-04T15:03:43;7.00;99.90
10885;DHT22;5495;53.252;10.390;2023-03-04T15:06:24;6.90;99.90
10885;DHT22;5495;53.252;10.390;2023-03-04T15:08:56;6.90;99.90
10885;DHT22;5495;53.252;10.390;2023-03-04T15:11:26;6.80;99.90
10885;DHT22;5495;53.252;10.390;2023-03-04T15:13:55;6.80;99.90
10885;DHT22;5495;53.252;10.390;2023-03-04T15:16:24;6.70;99.90
10885;DHT22;5495;53.252;10.390;2023-03-04T15:18:59;6.70;99.90
10885;DHT22;5495;53.252;10.390;2023-03-04T15:21:35;6.00;99.90
10885;DHT22;5495;53.252;10.390;2023-03-04T15:24:05;6.70;99.90
10885;DHT22;5495;53.252;10.390;2023-03-04T15:26:37;6.80;99.90
10885;DHT22;5495;53.252;10.390;2023-03-04T15:29:11;6.70;99.90
10885;DHT22;5495;53.252;10.390;2023-03-04T15:31:40;6.70;99.90
10885;DHT22;5495;53.252;10.390;2023-03-04T15:34:13;6.60;99.90
10885;DHT22;5495;53.252;10.390;2023-03-04T15:36:44;6.50;99.90
10885;DHT22;5495;53.252;10.390;2023-03-04T15:39:13;6.60;99.90
10885;DHT22;5495;53.252;10.390;2023-03-04T15:41:41;6.70;99.90
10885;DHT22;5495;53.252;10.390;2023-03-04T15:44:11;6.70;99.90
10885;DHT22;5495;53.252;10.390;2023-03-04T15:46:39;6.60;99.90
10885;DHT22;5495;53.252;10.390;2023-03-04T15:49:06;6.50;99.90
10885;DHT22;5495;53.252;10.390;2023-03-04T15:51:35;6.50;99.90
10885;DHT22;5495;53.252;10.390;2023-03-04T15:54:03;6.50;99.90
10885;DHT22;5495;53.252;10.390;2023-03-04T15:56:32;6.50;99.90
10885;DHT22;5495;53.252;10.390;2023-03-04T15:59:03;6.40;99.90
10885;DHT22;5495;53.252;10.390;2023-03-04T16:01:32;6.40;99.90
10885;DHT22;5495;53.252;10.390;2023-03-04T16:03:59;6.40;99.90
10885;DHT22;5495;53.252;10.390;2023-03-04T16:06:29;6.30;99.90
10885;DHT22;5495;53.252;10.390;2023-03-04T16:09:00;6.30;99.90
10885;DHT22;5495;53.252;10.390;2023-03-04T16:11:29;6.40;99.90
10885;DHT22;5495;53.252;10.390;2023-03-04T16:13:58;6.30;99.90
10885;DHT22;5495;53.252;10.390;2023-03-04T16:16:25;6.30;99.90
10885;DHT22;5495;53.252;10.390;2023-03-04T16:18:53;6.30;99.90